Time,TemperatureF,DewpointF,PressureIn,WindDirection,WindDirectionDegrees,WindSpeedMPH,WindSpeedGustMPH,Humidity,HourlyPrecipIn,Conditions,Clouds,dailyrainin,SolarRadiationWatts/m^2,SoftwareType,DateUTC
2013-04-27 00:01:00,73.0,21.0,-100.00,West,260,2.0,8.0,14,0.00,,,0.00,0.000000,,2013-04-27 07:01:00,
2013-04-27 00:11:00,73.0,21.0,-100.00,West,260,2.0,8.0,14,0.00,,,0.00,0.000000,,2013-04-27 07:11:00,
2013-04-27 00:21:00,73.0,21.0,-100.00,West,260,2.0,8.0,14,0.00,,,0.00,0.000000,,2013-04-27 07:21:00,
2013-04-27 00:52:00,70.0,22.0,-100.00,WNW,299,3.0,5.0,16,0.00,,,0.00,0.000000,,2013-04-27 07:52:00,
2013-04-27 01:01:00,70.0,22.0,-100.00,WNW,299,3.0,5.0,16,0.00,,,0.00,0.000000,,2013-04-27 08:01:00,
2013-04-27 01:11:00,70.0,22.0,-100.00,WNW,299,3.0,5.0,16,0.00,,,0.00,0.000000,,2013-04-27 08:11:00,
2013-04-27 01:21:00,70.0,22.0,-100.00,WNW,299,3.0,5.0,16,0.00,,,0.00,0.000000,,2013-04-27 08:21:00,
2013-04-27 01:52:00,69.0,24.0,-100.00,WSW,244,0.0,5.0,18,0.00,,,0.00,0.000000,,2013-04-27 08:52:00,
2013-04-27 02:01:00,69.0,24.0,-100.00,WSW,244,0.0,5.0,18,0.00,,,0.00,0.000000,,2013-04-27 09:01:00,
2013-04-27 02:11:00,69.0,24.0,-100.00,WSW,244,0.0,5.0,18,0.00,,,0.00,0.000000,,2013-04-27 09:11:00,
2013-04-27 02:21:00,69.0,24.0,-100.00,WSW,244,0.0,5.0,18,0.00,,,0.00,0.000000,,2013-04-27 09:21:00,
2013-04-27 02:53:00,68.0,23.0,-100.00,SSW,200,0.0,4.0,18,0.00,,,0.00,0.000000,,2013-04-27 09:53:00,
2013-04-27 03:02:00,68.0,23.0,-100.00,SSW,200,0.0,4.0,18,0.00,,,0.00,0.000000,,2013-04-27 10:02:00,
2013-04-27 03:12:00,68.0,23.0,-100.00,SSW,200,0.0,4.0,18,0.00,,,0.00,0.000000,,2013-04-27 10:12:00,
2013-04-27 03:22:00,68.0,23.0,-100.00,SSW,200,0.0,4.0,18,0.00,,,0.00,0.000000,,2013-04-27 10:22:00,
2013-04-27 03:52:00,65.0,25.0,-100.00,South,190,0.0,4.0,22,0.00,,,0.00,0.000000,,2013-04-27 10:52:00,
2013-04-27 04:02:00,65.0,25.0,-100.00,South,190,0.0,4.0,22,0.00,,,0.00,0.000000,,2013-04-27 11:02:00,
2013-04-27 04:11:00,65.0,25.0,-100.00,South,190,0.0,4.0,22,0.00,,,0.00,0.000000,,2013-04-27 11:11:00,
2013-04-27 04:21:00,65.0,25.0,-100.00,South,190,0.0,4.0,22,0.00,,,0.00,0.000000,,2013-04-27 11:21:00,
2013-04-27 04:52:00,67.0,25.0,-100.00,NW,317,1.0,6.0,20,0.00,,,0.00,0.000000,,2013-04-27 11:52:00,
2013-04-27 05:01:00,67.0,25.0,-100.00,NW,317,1.0,6.0,20,0.00,,,0.00,0.000000,,2013-04-27 12:01:00,
2013-04-27 05:11:00,67.0,25.0,-100.00,NW,317,1.0,6.0,20,0.00,,,0.00,0.000000,,2013-04-27 12:11:00,
2013-04-27 05:21:00,67.0,25.0,-100.00,NW,317,1.0,6.0,20,0.00,,,0.00,0.000000,,2013-04-27 12:21:00,
2013-04-27 05:52:00,67.0,21.0,-100.00,WSW,241,0.0,3.0,17,0.00,,,0.00,0.000000,,2013-04-27 12:52:00,
2013-04-27 06:01:00,67.0,21.0,-100.00,WSW,241,0.0,3.0,17,0.00,,,0.00,0.000000,,2013-04-27 13:01:00,
2013-04-27 06:11:00,67.0,21.0,-100.00,WSW,241,0.0,3.0,17,0.00,,,0.00,0.000000,,2013-04-27 13:11:00,
2013-04-27 06:21:00,67.0,21.0,-100.00,WSW,241,0.0,3.0,17,0.00,,,0.00,0.000000,,2013-04-27 13:21:00,
2013-04-27 06:52:00,67.0,22.0,-100.00,SW,223,0.0,6.0,18,0.00,,,-99.99,7.000000,,2013-04-27 13:52:00,
2013-04-27 07:02:00,67.0,22.0,-100.00,SW,223,0.0,6.0,18,0.00,,,-99.99,7.000000,,2013-04-27 14:02:00,
2013-04-27 07:11:00,67.0,22.0,-100.00,SW,223,0.0,6.0,18,0.00,,,-99.99,7.000000,,2013-04-27 14:11:00,
2013-04-27 07:21:00,67.0,22.0,-100.00,SW,223,0.0,6.0,18,0.00,,,-99.99,7.000000,,2013-04-27 14:21:00,
2013-04-27 07:52:00,72.0,22.0,-100.00,SSE,148,0.0,4.0,15,0.00,,,0.00,173.000000,,2013-04-27 14:52:00,
2013-04-27 08:21:00,72.0,22.0,-100.00,SSE,148,0.0,4.0,15,0.00,,,0.00,173.000000,,2013-04-27 15:21:00,
2013-04-27 08:53:00,75.0,24.0,-100.00,SSW,199,4.0,6.0,15,0.00,,,0.00,458.000000,,2013-04-27 15:53:00,
2013-04-27 09:02:00,75.0,24.0,-100.00,SSW,199,4.0,6.0,15,0.00,,,0.00,458.000000,,2013-04-27 16:02:00,
2013-04-27 09:22:00,75.0,24.0,-100.00,SSW,199,4.0,6.0,15,0.00,,,0.00,458.000000,,2013-04-27 16:22:00,
2013-04-27 09:53:00,80.0,19.0,-100.00,East,83,2.0,8.0,10,0.00,,,0.00,742.000000,,2013-04-27 16:53:00,
2013-04-27 10:02:00,80.0,19.0,-100.00,East,83,2.0,8.0,10,0.00,,,0.00,742.000000,,2013-04-27 17:02:00,
2013-04-27 10:53:00,82.0,15.0,-100.00,SE,125,4.0,12.0,8,0.00,,,0.00,990.000000,,2013-04-27 17:53:00,
2013-04-27 11:02:00,82.0,15.0,-100.00,SE,125,4.0,12.0,8,0.00,,,0.00,990.000000,,2013-04-27 18:02:00,
2013-04-27 11:52:00,87.0,16.0,-100.00,East,100,5.0,16.0,7,0.00,,,0.00,1175.000000,,2013-04-27 18:52:00,
2013-04-27 12:53:00,87.0,12.0,-100.00,ENE,76,7.0,15.0,6,-99.99,,,0.00,1287.000000,,2013-04-27 19:53:00,
2013-04-27 13:02:00,87.0,12.0,-100.00,ENE,76,7.0,15.0,6,-99.99,,,0.00,1287.000000,,2013-04-27 20:02:00,
2013-04-27 13:11:00,87.0,12.0,-100.00,ENE,76,7.0,15.0,6,-99.99,,,0.00,1287.000000,,2013-04-27 20:11:00,
2013-04-27 13:21:00,87.0,12.0,-100.00,ENE,76,7.0,15.0,6,-99.99,,,0.00,1287.000000,,2013-04-27 20:21:00,
2013-04-27 13:52:00,88.0,13.0,-100.00,ESE,107,3.0,16.0,6,0.00,,,0.00,1319.000000,,2013-04-27 20:52:00,
2013-04-27 14:02:00,88.0,13.0,-100.00,ESE,107,3.0,16.0,6,0.00,,,0.00,1319.000000,,2013-04-27 21:02:00,
2013-04-27 14:11:00,88.0,13.0,-100.00,ESE,107,3.0,16.0,6,0.00,,,0.00,1319.000000,,2013-04-27 21:11:00,
2013-04-27 14:21:00,88.0,13.0,-100.00,ESE,107,3.0,16.0,6,0.00,,,0.00,1319.000000,,2013-04-27 21:21:00,
2013-04-27 14:53:00,87.0,12.0,-100.00,ESE,108,5.0,17.0,6,0.00,,,0.00,1268.000000,,2013-04-27 21:53:00,
2013-04-27 15:02:00,87.0,12.0,-100.00,ESE,108,5.0,17.0,6,0.00,,,0.00,1268.000000,,2013-04-27 22:02:00,
2013-04-27 15:12:00,87.0,12.0,-100.00,ESE,108,5.0,17.0,6,0.00,,,0.00,1268.000000,,2013-04-27 22:12:00,
2013-04-27 15:22:00,87.0,12.0,-100.00,ESE,108,5.0,17.0,6,0.00,,,0.00,1268.000000,,2013-04-27 22:22:00,
2013-04-27 15:52:00,89.0,13.0,-100.00,SE,146,6.0,15.0,6,0.00,,,0.00,1139.000000,,2013-04-27 22:52:00,
2013-04-27 16:02:00,89.0,13.0,-100.00,SE,146,6.0,15.0,6,0.00,,,0.00,1139.000000,,2013-04-27 23:02:00,
2013-04-27 16:11:00,89.0,13.0,-100.00,SE,146,6.0,15.0,6,0.00,,,0.00,1139.000000,,2013-04-27 23:11:00,
2013-04-27 16:22:00,89.0,13.0,-100.00,SE,146,6.0,15.0,6,0.00,,,0.00,1139.000000,,2013-04-27 23:22:00,
2013-04-27 16:52:00,88.0,13.0,-100.00,SSE,148,6.0,15.0,6,0.00,,,0.00,932.000000,,2013-04-27 23:52:00,
2013-04-27 17:01:00,88.0,13.0,-100.00,SSE,148,6.0,15.0,6,0.00,,,0.00,932.000000,,2013-04-28 00:01:00,
2013-04-27 17:11:00,88.0,13.0,-100.00,SSE,148,6.0,15.0,6,0.00,,,0.00,932.000000,,2013-04-28 00:11:00,
2013-04-27 17:21:00,88.0,13.0,-100.00,SSE,148,6.0,15.0,6,0.00,,,0.00,932.000000,,2013-04-28 00:21:00,
2013-04-27 17:52:00,83.0,16.0,-100.00,West,277,10.0,24.0,8,0.00,,,0.00,663.000000,,2013-04-28 00:52:00,
2013-04-27 18:01:00,83.0,16.0,-100.00,West,277,10.0,24.0,8,0.00,,,0.00,663.000000,,2013-04-28 01:01:00,
2013-04-27 18:11:00,83.0,16.0,-100.00,West,277,10.0,24.0,8,0.00,,,0.00,663.000000,,2013-04-28 01:11:00,
2013-04-27 18:21:00,83.0,16.0,-100.00,West,277,10.0,24.0,8,0.00,,,0.00,663.000000,,2013-04-28 01:21:00,
2013-04-27 18:52:00,79.0,15.0,-100.00,WNW,282,14.0,30.0,9,0.00,,,0.00,357.000000,,2013-04-28 01:52:00,
2013-04-27 19:01:00,79.0,15.0,-100.00,WNW,282,14.0,30.0,9,0.00,,,0.00,357.000000,,2013-04-28 02:01:00,
2013-04-27 19:12:00,79.0,15.0,-100.00,WNW,282,14.0,30.0,9,0.00,,,0.00,357.000000,,2013-04-28 02:12:00,
2013-04-27 19:21:00,79.0,15.0,-100.00,WNW,282,14.0,30.0,9,0.00,,,0.00,357.000000,,2013-04-28 02:21:00,
2013-04-27 19:52:00,78.0,19.0,-100.00,West,267,19.0,33.0,11,0.00,,,0.00,35.000000,,2013-04-28 02:52:00,
2013-04-27 20:01:00,78.0,19.0,-100.00,West,267,19.0,33.0,11,0.00,,,0.00,35.000000,,2013-04-28 03:01:00,
2013-04-27 20:11:00,78.0,19.0,-100.00,West,267,19.0,33.0,11,0.00,,,0.00,35.000000,,2013-04-28 03:11:00,
2013-04-27 20:21:00,78.0,19.0,-100.00,West,267,19.0,33.0,11,0.00,,,0.00,35.000000,,2013-04-28 03:21:00,
2013-04-27 20:53:00,77.0,22.0,-100.00,West,271,14.0,34.0,13,0.00,,,0.00,2.000000,,2013-04-28 03:53:00,
2013-04-27 21:02:00,77.0,22.0,-100.00,West,271,14.0,34.0,13,0.00,,,0.00,2.000000,,2013-04-28 04:02:00,
2013-04-27 21:13:00,77.0,22.0,-100.00,West,271,14.0,34.0,13,0.00,,,0.00,2.000000,,2013-04-28 04:13:00,
2013-04-27 21:22:00,77.0,22.0,-100.00,West,271,14.0,34.0,13,0.00,,,0.00,2.000000,,2013-04-28 04:22:00,
2013-04-27 21:53:00,76.0,20.0,-100.00,West,279,8.0,25.0,12,0.00,,,0.00,0.000000,,2013-04-28 04:53:00,
2013-04-27 22:02:00,76.0,20.0,-100.00,West,279,8.0,25.0,12,0.00,,,0.00,0.000000,,2013-04-28 05:02:00,
2013-04-27 22:12:00,76.0,20.0,-100.00,West,279,8.0,25.0,12,0.00,,,0.00,0.000000,,2013-04-28 05:12:00,
2013-04-27 22:22:00,76.0,20.0,-100.00,West,279,8.0,25.0,12,0.00,,,0.00,0.000000,,2013-04-28 05:22:00,
2013-04-27 22:52:00,77.0,22.0,-100.00,West,277,8.0,18.0,13,0.00,,,0.00,0.000000,,2013-04-28 05:52:00,
2013-04-27 23:01:00,77.0,22.0,-100.00,West,277,8.0,18.0,13,0.00,,,0.00,0.000000,,2013-04-28 06:01:00,
2013-04-27 23:12:00,77.0,22.0,-100.00,West,277,8.0,18.0,13,0.00,,,0.00,0.000000,,2013-04-28 06:12:00,
2013-04-27 23:21:00,77.0,22.0,-100.00,West,277,8.0,18.0,13,0.00,,,0.00,0.000000,,2013-04-28 06:21:00,
2013-04-27 23:52:00,75.0,21.0,-100.00,West,277,7.0,15.0,13,0.00,,,0.00,0.000000,,2013-04-28 06:52:00,